Hauptseite
METAR-TAF:

METAR-TAF

Flughäfen :

Rick Husband Amarillo International Airport

Amarillo, Texas, Vereinigte Staaten

Breite: 35-13-12N, Länge: 101-43-02W, Höhe: 1099 m

Beobachtung

Neuester Wetterbericht von vor 1 Stunde und 2 Minuten, um 04:53 UTC
Wind 15 kt aus Süd
Temperatur 29°C
Luftfeuchtigkeit 33%
Luftdruck 1021 hPa
Sichtweite: 16.1 km
Himmel klar

METAR: KAMA 130453Z 18015KT 10SM CLR 29/11 A3015 RMK AO2 SLP140 T02890106

Zeit: 00:55 (05:55 UTC)

Prognose

Neuester Wetterbericht von vor 35 Minuten, um 05:20 UTC
Gültige Prognose vom 13 um 06 UTC bis 14 um 06 UTC
Wind 14 kt aus Süd
Sichtweite: 10 km
Himmel klar
Ab 13 um 1400 UTC
Wind 13 kt aus Südwest, Böen bis zu 22 kt
Sichtweite: 10 km
Himmel klar
Ab 13 um 2100 UTC
Wind 13 kt aus Süd
Sichtweite: 10 km
Himmel klar

TAF: KAMA 130520Z 1306/1406 18014KT P6SM SKC FM131400 22013G22KT P6SM SKC FM132100 18013KT P6SM SKC

Wetterbeobachtungen und Prognosen von mehr als 4000 Flughäfen (METAR und TAF Bericht).

Die verfügbaren Stationen werden durch gelbe und rote Markierungen auf der Karte dargestellt.

Führen Sie die Maus auf sie, um den Namen der Station zu sehen.

Darauf klicken, um die Beobachtung von Wetterbeobachtungen und Prognosen zu sehen.

Um die Karte zu ändern : klicken Sie auf den grünen Tasten mit einem schwarzen Kreuz Zum Vergrößern, auf den grünen Button mit einem Gedankenstrich zu verkleinern, oder auf die grünen Pfeile für benachbarte Karten.


METAR-TAF: